createdAt,value
2017-09-06T00:00:51.395Z,38.17
2017-09-06T00:03:18.877Z,31.17
2017-09-06T00:05:46.338Z,39.10
2017-09-06T00:08:13.793Z,37.07
2017-09-06T00:10:41.270Z,40.63
2017-09-06T00:13:09.588Z,41.33
2017-09-06T00:15:37.042Z,44.90
2017-09-06T00:18:04.521Z,41.43
2017-09-06T00:20:32.067Z,46.40
2017-09-06T00:22:59.558Z,40.40
2017-09-06T00:25:27.005Z,55.60
2017-09-06T00:27:54.453Z,62.47
2017-09-06T00:30:21.958Z,38.20
2017-09-06T00:32:49.401Z,42.37
2017-09-06T00:35:16.854Z,52.43
2017-09-06T00:37:44.336Z,43.30
2017-09-06T00:40:11.789Z,38.60
2017-09-06T00:42:39.267Z,41.20
2017-09-06T00:45:06.766Z,44.60
2017-09-06T00:47:34.233Z,43.87
2017-09-06T00:50:01.768Z,40.43
2017-09-06T00:52:29.246Z,47.53
2017-09-06T00:54:56.743Z,46.07
2017-09-06T00:57:24.194Z,45.87
2017-09-06T00:59:51.649Z,47.37
2017-09-06T01:02:19.116Z,43.20
2017-09-06T01:04:46.592Z,39.00
2017-09-06T01:07:14.069Z,39.57
2017-09-06T01:09:41.531Z,35.17
2017-09-06T01:12:09.009Z,43.83
2017-09-06T01:14:36.464Z,43.10
2017-09-06T01:17:03.941Z,36.53
2017-09-06T01:19:31.489Z,38.90
2017-09-06T01:21:58.946Z,39.83
2017-09-06T01:24:26.424Z,32.33
2017-09-06T01:26:53.885Z,36.67
2017-09-06T01:29:21.387Z,29.13
2017-09-06T01:31:48.845Z,33.37
2017-09-06T01:34:16.297Z,41.90
2017-09-06T01:36:43.788Z,29.57
2017-09-06T01:39:11.277Z,25.83
2017-09-06T01:41:38.730Z,29.67
2017-09-06T01:44:06.218Z,16.30
2017-09-06T01:46:33.668Z,20.90
2017-09-06T01:49:01.173Z,17.20
2017-09-06T01:51:28.655Z,21.10
2017-09-06T01:53:56.133Z,16.60
2017-09-06T01:56:23.610Z,17.80
2017-09-06T01:58:51.065Z,16.77
2017-09-06T02:01:18.558Z,22.10
2017-09-06T02:03:46.010Z,20.87
2017-09-06T02:06:13.466Z,25.83
2017-09-06T02:08:40.961Z,15.53
2017-09-06T02:11:08.410Z,18.27
2017-09-06T02:13:35.866Z,13.17
2017-09-06T02:16:03.369Z,19.77
2017-09-06T02:18:30.866Z,20.83
2017-09-06T02:20:58.321Z,14.67
2017-09-06T02:23:25.794Z,16.30
2017-09-06T02:25:53.262Z,23.77
2017-09-06T02:28:20.746Z,14.47
2017-09-06T02:30:48.206Z,14.77
2017-09-06T02:33:15.654Z,9.47
2017-09-06T02:35:43.145Z,10.30
2017-09-06T02:38:10.598Z,13.73
2017-09-06T02:40:38.053Z,10.37
2017-09-06T02:43:05.526Z,14.40
2017-09-06T02:45:32.992Z,7.80
2017-09-06T02:48:00.490Z,8.73
2017-09-06T02:50:27.941Z,11.70
2017-09-06T02:52:55.421Z,8.93
2017-09-06T02:55:22.873Z,8.23
2017-09-06T02:57:50.320Z,9.33
2017-09-06T03:00:17.798Z,9.50
2017-09-06T03:02:45.253Z,6.50
2017-09-06T03:05:12.714Z,14.30
2017-09-06T03:07:40.186Z,13.20
2017-09-06T03:10:07.701Z,8.30
2017-09-06T03:12:35.145Z,14.93
2017-09-06T03:15:02.618Z,17.77
2017-09-06T03:17:30.101Z,10.30
2017-09-06T03:19:57.561Z,11.40
2017-09-06T03:22:25.026Z,10.60
2017-09-06T03:24:52.501Z,16.13
2017-09-06T03:27:19.955Z,7.00
2017-09-06T03:29:47.469Z,13.73
2017-09-06T03:32:14.926Z,9.37
2017-09-06T03:34:42.398Z,7.23
2017-09-06T03:37:09.865Z,9.30
2017-09-06T03:39:37.381Z,8.37
2017-09-06T03:42:04.850Z,11.43
2017-09-06T03:44:32.790Z,9.30
2017-09-06T03:47:00.252Z,10.50
2017-09-06T03:49:27.706Z,10.53
2017-09-06T03:51:55.200Z,12.67
2017-09-06T03:54:22.653Z,7.97
2017-09-06T03:56:50.117Z,10.67
2017-09-06T03:59:17.590Z,11.33
2017-09-06T04:01:45.070Z,17.53
2017-09-06T04:04:12.545Z,10.80
2017-09-06T04:06:39.998Z,8.90
2017-09-06T04:09:07.516Z,10.57
2017-09-06T04:11:35.031Z,11.57
2017-09-06T04:14:02.481Z,10.60
2017-09-06T04:16:29.934Z,13.80
2017-09-06T04:18:57.410Z,10.17
2017-09-06T04:21:24.861Z,8.30
2017-09-06T04:23:52.330Z,9.07
2017-09-06T04:26:19.834Z,10.60
2017-09-06T04:28:47.305Z,14.10
2017-09-06T04:31:14.761Z,13.93
2017-09-06T04:33:42.246Z,13.80
2017-09-06T04:36:09.738Z,16.07
2017-09-06T04:38:37.190Z,14.20
2017-09-06T04:41:05.413Z,12.83
2017-09-06T04:43:32.890Z,14.27
2017-09-06T04:46:00.417Z,15.63
2017-09-06T04:48:27.869Z,14.63
2017-09-06T04:50:55.321Z,17.80
2017-09-06T04:53:22.805Z,18.07
2017-09-06T04:55:50.286Z,19.80
2017-09-06T04:58:17.757Z,20.10
2017-09-06T05:00:45.237Z,14.93
2017-09-06T05:03:12.733Z,15.73
2017-09-06T05:05:40.193Z,14.70
2017-09-06T05:08:07.705Z,17.33
2017-09-06T05:10:35.188Z,21.03
2017-09-06T05:13:02.685Z,14.60
2017-09-06T05:15:30.145Z,15.30
2017-09-06T05:17:57.589Z,20.30
2017-09-06T05:20:25.086Z,15.43
2017-09-06T05:22:52.538Z,15.30
2017-09-06T05:25:19.994Z,20.20
2017-09-06T05:27:47.498Z,16.90
2017-09-06T05:30:14.953Z,16.23
2017-09-06T05:32:42.419Z,20.03
2017-09-06T05:35:09.905Z,33.50
2017-09-06T05:37:37.389Z,15.97
2017-09-06T05:40:04.863Z,15.83
2017-09-06T05:42:33.103Z,23.37
2017-09-06T05:45:00.574Z,25.67
2017-09-06T05:47:28.047Z,31.97
2017-09-06T05:49:55.509Z,34.37
2017-09-06T05:52:22.985Z,29.20
2017-09-06T05:54:50.467Z,28.13
2017-09-06T05:57:17.925Z,34.90
2017-09-06T05:59:45.404Z,31.50
2017-09-06T06:02:12.865Z,22.20
2017-09-06T06:04:40.413Z,19.33
2017-09-06T06:07:07.896Z,16.80
2017-09-06T06:09:35.325Z,11.03
2017-09-06T06:12:02.797Z,11.63
2017-09-06T06:14:30.466Z,11.07
2017-09-06T06:16:57.935Z,14.93
2017-09-06T06:19:25.421Z,4.70
2017-09-06T06:21:52.872Z,5.97
2017-09-06T06:24:20.325Z,12.63
2017-09-06T06:26:47.805Z,9.10
2017-09-06T06:29:15.253Z,9.30
2017-09-06T06:31:42.835Z,18.30
2017-09-06T06:34:10.368Z,9.33
2017-09-06T06:36:37.824Z,9.57
2017-09-06T06:39:05.309Z,10.20
2017-09-06T06:41:32.769Z,10.23
2017-09-06T06:44:00.245Z,9.67
2017-09-06T06:46:27.723Z,2.80
2017-09-06T06:48:55.173Z,5.60
2017-09-06T06:51:22.670Z,14.23
2017-09-06T06:53:50.138Z,12.53
2017-09-06T06:56:17.589Z,4.87
2017-09-06T06:58:45.075Z,15.47
2017-09-06T07:01:12.533Z,5.80
2017-09-06T07:03:40.021Z,5.53
2017-09-06T07:06:07.462Z,3.03
2017-09-06T07:08:34.941Z,4.60
2017-09-06T07:11:02.422Z,2.80
2017-09-06T07:13:29.909Z,4.43
2017-09-06T07:15:57.377Z,5.97
2017-09-06T07:18:24.836Z,7.37
2017-09-06T07:20:53.127Z,5.57
2017-09-06T07:23:20.578Z,5.80
2017-09-06T07:25:48.794Z,6.90
2017-09-06T07:28:16.261Z,4.40
2017-09-06T07:30:43.765Z,3.17
2017-09-06T07:33:11.268Z,3.63
2017-09-06T07:35:38.729Z,4.07
2017-09-06T07:38:06.369Z,3.47
2017-09-06T07:40:33.886Z,8.77
2017-09-06T07:43:01.386Z,11.77
2017-09-06T07:45:28.847Z,3.40
2017-09-06T07:47:56.286Z,5.70
2017-09-06T07:50:23.805Z,10.47
2017-09-06T07:52:51.269Z,18.30
2017-09-06T07:55:18.733Z,13.97
2017-09-06T07:57:46.209Z,9.93
2017-09-06T08:00:13.726Z,14.37
2017-09-06T08:02:41.196Z,9.27
2017-09-06T08:05:08.740Z,17.47
2017-09-06T08:07:36.298Z,12.87
2017-09-06T08:10:06.492Z,10.43
2017-09-06T08:12:35.989Z,7.20
2017-09-06T08:15:03.501Z,12.83
2017-09-06T08:17:31.089Z,8.50
2017-09-06T08:19:58.585Z,18.63
2017-09-06T08:22:26.037Z,8.67
2017-09-06T08:24:53.514Z,14.63
2017-09-06T08:27:20.978Z,4.93
2017-09-06T08:29:48.469Z,15.63
2017-09-06T08:32:15.922Z,15.93
2017-09-06T08:34:43.382Z,18.10
2017-09-06T08:37:10.861Z,12.90
2017-09-06T08:39:38.326Z,19.83
2017-09-06T08:42:05.778Z,9.33
2017-09-06T08:44:33.249Z,17.83
2017-09-06T08:47:00.696Z,13.77
2017-09-06T08:49:28.276Z,6.67
2017-09-06T08:51:55.779Z,14.00
2017-09-06T08:54:23.676Z,13.00
2017-09-06T08:56:51.139Z,12.60
2017-09-06T08:59:18.597Z,9.87
2017-09-06T09:01:46.115Z,9.40
2017-09-06T09:04:13.688Z,10.37
2017-09-06T09:06:41.207Z,12.43
2017-09-06T09:09:08.681Z,13.23
2017-09-06T09:11:36.148Z,8.90
2017-09-06T09:14:03.676Z,15.70
2017-09-06T09:16:31.157Z,6.80
2017-09-06T09:18:58.662Z,13.83
2017-09-06T09:21:26.157Z,8.67
2017-09-06T09:23:53.656Z,9.27
2017-09-06T09:26:21.188Z,15.47
2017-09-06T09:28:48.678Z,13.10
2017-09-06T09:31:16.217Z,10.07
2017-09-06T09:33:43.736Z,9.87
2017-09-06T09:36:11.242Z,9.83
2017-09-06T09:38:38.718Z,16.13
2017-09-06T09:41:06.210Z,5.37
2017-09-06T09:43:34.465Z,9.73
2017-09-06T09:46:02.006Z,16.87
2017-09-06T09:48:29.684Z,8.43
2017-09-06T09:50:57.186Z,9.67
2017-09-06T09:53:24.686Z,10.30
2017-09-06T09:55:52.202Z,5.60
2017-09-06T09:58:19.666Z,5.67
2017-09-06T10:00:47.142Z,5.60
2017-09-06T10:03:14.676Z,7.40
2017-09-06T10:05:42.122Z,8.73
2017-09-06T10:08:09.626Z,8.10
2017-09-06T10:10:37.195Z,7.90
2017-09-06T10:13:04.661Z,8.80
2017-09-06T10:15:32.138Z,9.90
2017-09-06T10:17:59.754Z,6.33
2017-09-06T10:20:27.253Z,18.80
2017-09-06T10:22:54.719Z,7.07
2017-09-06T10:25:22.226Z,9.67
2017-09-06T10:27:49.710Z,14.00
2017-09-06T10:30:17.227Z,5.37
2017-09-06T10:32:44.765Z,19.00
2017-09-06T10:35:12.246Z,7.80
2017-09-06T10:37:39.752Z,15.07
2017-09-06T10:40:07.237Z,6.70
2017-09-06T10:42:35.481Z,16.90
2017-09-06T10:45:03.000Z,13.20
2017-09-06T10:47:30.478Z,10.47
2017-09-06T10:49:57.945Z,10.50
2017-09-06T10:52:25.499Z,8.43
2017-09-06T10:54:52.960Z,10.93
2017-09-06T10:57:20.462Z,11.30
2017-09-06T10:59:47.945Z,5.70
2017-09-06T11:02:15.457Z,11.13
2017-09-06T11:04:43.017Z,7.53
2017-09-06T11:07:10.497Z,7.97
2017-09-06T11:09:38.036Z,13.20
2017-09-06T11:12:05.558Z,8.57
2017-09-06T11:14:33.049Z,12.00
2017-09-06T11:17:00.557Z,5.70
2017-09-06T11:19:28.033Z,4.60
2017-09-06T11:21:55.528Z,14.53
2017-09-06T11:24:23.014Z,4.23
2017-09-06T11:26:50.505Z,5.90
2017-09-06T11:29:17.961Z,5.10
2017-09-06T11:31:45.474Z,6.30
2017-09-06T11:34:12.972Z,15.77
2017-09-06T11:36:40.853Z,7.20
2017-09-06T11:39:08.396Z,6.93
2017-09-06T11:41:35.907Z,15.63
2017-09-06T11:44:03.401Z,12.27
2017-09-06T11:46:30.873Z,9.67
2017-09-06T11:48:58.377Z,7.10
2017-09-06T11:51:25.922Z,15.60
2017-09-06T11:53:53.517Z,10.00
2017-09-06T11:56:21.778Z,17.47
2017-09-06T11:58:49.274Z,11.70
2017-09-06T12:01:16.789Z,8.60
2017-09-06T12:03:44.270Z,15.57
2017-09-06T12:06:12.034Z,43.77
2017-09-06T12:08:39.609Z,9.97
2017-09-06T12:11:07.086Z,17.83
2017-09-06T12:13:34.580Z,14.40
2017-09-06T12:16:02.112Z,12.23
2017-09-06T12:18:29.597Z,11.97
2017-09-06T12:20:57.101Z,20.27
2017-09-06T12:23:24.622Z,13.93
2017-09-06T12:25:52.113Z,14.03
2017-09-06T12:28:19.602Z,4.00
2017-09-06T12:30:47.127Z,26.17
2017-09-06T12:33:14.610Z,12.47
2017-09-06T12:35:42.117Z,15.20
2017-09-06T12:38:09.587Z,12.83
2017-09-06T12:40:37.073Z,22.63
2017-09-06T12:43:04.525Z,9.93
2017-09-06T12:45:32.028Z,19.97
2017-09-06T12:47:59.643Z,19.93
2017-09-06T12:50:27.132Z,11.87
2017-09-06T12:52:54.599Z,12.70
2017-09-06T12:55:22.119Z,14.70
2017-09-06T12:57:49.625Z,19.33
2017-09-06T13:00:18.093Z,18.90
2017-09-06T13:02:45.604Z,10.00
2017-09-06T13:05:13.090Z,9.87
2017-09-06T13:07:40.584Z,18.37
2017-09-06T13:10:08.061Z,9.07
2017-09-06T13:12:35.534Z,8.47
2017-09-06T13:15:03.047Z,22.37
2017-09-06T13:17:30.523Z,6.10
2017-09-06T13:19:58.064Z,17.80
2017-09-06T13:22:25.526Z,6.57
2017-09-06T13:24:53.015Z,24.87
2017-09-06T13:27:20.494Z,9.43
2017-09-06T13:29:47.965Z,18.03
2017-09-06T13:32:15.433Z,10.80
2017-09-06T13:34:42.889Z,18.53
2017-09-06T13:37:10.369Z,19.33
2017-09-06T13:39:37.830Z,13.60
2017-09-06T13:42:05.289Z,24.73
2017-09-06T13:44:32.790Z,23.23
2017-09-06T13:47:00.250Z,16.27
2017-09-06T13:49:27.709Z,11.33
2017-09-06T13:51:55.173Z,15.70
2017-09-06T13:54:22.633Z,17.20
2017-09-06T13:56:50.118Z,15.97
2017-09-06T13:59:17.671Z,7.37
2017-09-06T14:01:45.889Z,12.17
2017-09-06T14:04:13.366Z,12.73
2017-09-06T14:06:40.819Z,9.70
2017-09-06T14:09:08.281Z,7.50
2017-09-06T14:11:35.774Z,20.50
2017-09-06T14:14:04.005Z,20.43
2017-09-06T14:16:31.471Z,24.40
2017-09-06T14:18:58.953Z,21.23
2017-09-06T14:21:26.407Z,18.83
2017-09-06T14:23:53.894Z,23.67
2017-09-06T14:26:22.129Z,14.47
2017-09-06T14:28:49.907Z,13.83
2017-09-06T14:31:17.414Z,15.03
2017-09-06T14:33:47.827Z,18.50
2017-09-06T14:36:16.157Z,13.70
2017-09-06T14:38:43.622Z,13.63
2017-09-06T14:41:11.290Z,7.63
2017-09-06T14:43:38.769Z,19.80
2017-09-06T14:46:06.229Z,7.90
2017-09-06T14:48:33.713Z,13.80
2017-09-06T14:51:01.215Z,11.00
2017-09-06T14:53:28.665Z,13.87
2017-09-06T14:55:56.121Z,18.10
2017-09-06T14:58:23.638Z,14.10
2017-09-06T15:00:51.854Z,9.80
2017-09-06T15:03:19.326Z,15.77
2017-09-06T15:05:46.827Z,12.23
2017-09-06T15:08:14.313Z,13.90
2017-09-06T15:10:41.778Z,12.13
2017-09-06T15:13:09.269Z,14.20
2017-09-06T15:15:36.718Z,24.43
2017-09-06T15:18:04.189Z,24.63
2017-09-06T15:20:31.669Z,20.43
2017-09-06T15:22:59.126Z,21.20
2017-09-06T15:25:26.597Z,22.73
2017-09-06T15:27:54.054Z,12.67
2017-09-06T15:30:21.558Z,21.33
2017-09-06T15:32:49.015Z,23.17
2017-09-06T15:35:16.478Z,17.17
2017-09-06T15:37:44.047Z,20.70
2017-09-06T15:40:11.521Z,12.90
2017-09-06T15:42:39.101Z,24.37
2017-09-06T15:45:06.557Z,15.97
2017-09-06T15:47:34.783Z,14.50
2017-09-06T15:50:02.314Z,11.17
2017-09-06T15:52:29.773Z,19.47
2017-09-06T15:54:57.253Z,22.60
2017-09-06T15:57:24.697Z,12.53
2017-09-06T15:59:52.165Z,18.43
2017-09-06T16:02:19.725Z,14.07
2017-09-06T16:04:47.181Z,26.00
2017-09-06T16:07:14.661Z,12.33
2017-09-06T16:09:42.245Z,15.00
2017-09-06T16:12:09.702Z,19.63
2017-09-06T16:14:37.186Z,21.93
2017-09-06T16:17:04.634Z,27.17
2017-09-06T16:19:32.090Z,19.47
2017-09-06T16:21:59.558Z,20.67
2017-09-06T16:24:27.019Z,19.10
2017-09-06T16:26:54.485Z,22.90
2017-09-06T16:29:21.938Z,28.27
2017-09-06T16:31:49.433Z,12.33
2017-09-06T16:34:16.895Z,18.57
2017-09-06T16:36:44.341Z,19.10
2017-09-06T16:39:11.825Z,15.17
2017-09-06T16:41:39.326Z,23.37
2017-09-06T16:44:07.727Z,23.70
2017-09-06T16:46:35.198Z,24.40
2017-09-06T16:49:02.717Z,16.20
2017-09-06T16:51:30.202Z,21.87
2017-09-06T16:53:57.674Z,12.10
2017-09-06T16:56:25.153Z,11.27
2017-09-06T16:58:52.914Z,17.73
2017-09-06T17:01:20.393Z,15.50
2017-09-06T17:03:47.860Z,12.37
2017-09-06T17:06:15.365Z,17.90
2017-09-06T17:08:42.825Z,19.03
2017-09-06T17:11:10.285Z,13.60
2017-09-06T17:13:37.781Z,19.07
2017-09-06T17:16:05.238Z,13.50
2017-09-06T17:18:32.695Z,25.00
2017-09-06T17:21:00.178Z,19.20
2017-09-06T17:23:28.429Z,15.07
2017-09-06T17:25:55.921Z,24.40
2017-09-06T17:28:23.378Z,22.17
2017-09-06T17:30:50.834Z,16.93
2017-09-06T17:33:18.326Z,26.67
2017-09-06T17:35:45.778Z,9.20
2017-09-06T17:38:13.234Z,21.90
2017-09-06T17:40:40.725Z,16.57
2017-09-06T17:43:08.170Z,18.93
2017-09-06T17:45:35.627Z,24.57
2017-09-06T17:48:03.102Z,20.30
2017-09-06T17:50:30.581Z,27.53
2017-09-06T17:52:58.048Z,20.07
2017-09-06T17:55:25.527Z,13.60
2017-09-06T17:57:52.998Z,20.23
2017-09-06T18:00:20.483Z,24.60
2017-09-06T18:02:47.925Z,19.77
2017-09-06T18:05:15.420Z,16.23
2017-09-06T18:07:42.866Z,16.80
2017-09-06T18:10:10.354Z,20.73
2017-09-06T18:12:38.602Z,25.13
2017-09-06T18:15:06.055Z,22.00
2017-09-06T18:17:33.501Z,14.13
2017-09-06T18:20:00.986Z,29.67
2017-09-06T18:22:28.431Z,23.33
2017-09-06T18:24:55.905Z,23.07
2017-09-06T18:27:23.362Z,16.60
2017-09-06T18:29:50.846Z,19.83
2017-09-06T18:32:18.295Z,14.83
2017-09-06T18:34:46.667Z,21.77
2017-09-06T18:37:14.142Z,11.50
2017-09-06T18:39:41.610Z,16.73
2017-09-06T18:42:09.078Z,24.93
2017-09-06T18:44:36.528Z,15.37
2017-09-06T18:47:04.000Z,16.60
2017-09-06T18:49:31.486Z,13.87
2017-09-06T18:51:58.925Z,13.97
2017-09-06T18:54:26.385Z,21.33
2017-09-06T18:56:53.878Z,18.53
2017-09-06T18:59:21.339Z,15.57
2017-09-06T19:01:48.793Z,15.37
2017-09-06T19:04:16.270Z,21.13
2017-09-06T19:06:43.742Z,25.70
2017-09-06T19:09:11.314Z,17.60
2017-09-06T19:11:38.785Z,12.97
2017-09-06T19:14:07.105Z,27.87
2017-09-06T19:16:34.574Z,17.40
2017-09-06T19:19:02.078Z,16.17
2017-09-06T19:21:29.537Z,21.57
2017-09-06T19:23:57.020Z,26.13
2017-09-06T19:26:24.505Z,46.83
2017-09-06T19:28:51.981Z,24.03
2017-09-06T19:31:19.492Z,20.60
2017-09-06T19:33:47.021Z,24.53
2017-09-06T19:36:14.501Z,26.20
2017-09-06T19:38:41.954Z,30.00
2017-09-06T19:41:09.417Z,19.40
2017-09-06T19:43:36.885Z,14.10
2017-09-06T19:46:04.354Z,21.30
2017-09-06T19:48:31.867Z,22.37
2017-09-06T19:50:59.629Z,17.67
2017-09-06T19:53:27.085Z,15.33
2017-09-06T19:55:54.601Z,16.90
2017-09-06T19:58:22.058Z,33.83
2017-09-06T20:00:49.514Z,29.10
2017-09-06T20:03:16.987Z,17.47
2017-09-06T20:05:44.457Z,17.60
2017-09-06T20:08:11.923Z,18.20
2017-09-06T20:10:39.489Z,31.97
2017-09-06T20:13:07.123Z,26.50
2017-09-06T20:15:34.610Z,22.33
2017-09-06T20:18:02.075Z,23.53
2017-09-06T20:20:29.550Z,14.17
2017-09-06T20:22:57.008Z,20.80
2017-09-06T20:25:24.486Z,12.70
2017-09-06T20:27:51.947Z,19.87
2017-09-06T20:30:19.447Z,31.57
2017-09-06T20:32:47.705Z,22.03
2017-09-06T20:35:15.157Z,28.40
2017-09-06T20:37:42.614Z,29.43
2017-09-06T20:40:10.105Z,24.03
2017-09-06T20:42:37.565Z,31.90
2017-09-06T20:45:05.038Z,10.10
2017-09-06T20:47:32.518Z,30.17
2017-09-06T20:49:59.978Z,23.60
2017-09-06T20:52:27.465Z,21.80
2017-09-06T20:54:54.909Z,27.20
2017-09-06T20:57:22.393Z,26.57
2017-09-06T20:59:49.845Z,27.20
2017-09-06T21:02:17.297Z,30.27
2017-09-06T21:04:44.784Z,22.77
2017-09-06T21:07:12.237Z,34.63
2017-09-06T21:09:39.693Z,19.63
2017-09-06T21:12:07.212Z,35.60
2017-09-06T21:14:34.661Z,23.50
2017-09-06T21:17:02.144Z,26.73
2017-09-06T21:19:29.601Z,29.87
2017-09-06T21:21:57.088Z,18.53
2017-09-06T21:24:25.310Z,15.50
2017-09-06T21:26:52.768Z,21.50
2017-09-06T21:29:20.305Z,29.70
2017-09-06T21:31:47.795Z,30.67
2017-09-06T21:34:15.283Z,32.13
2017-09-06T21:36:42.737Z,47.97
2017-09-06T21:39:10.269Z,23.83
2017-09-06T21:41:37.725Z,33.27
2017-09-06T21:44:05.874Z,30.25
2017-09-06T21:46:33.369Z,14.50
2017-09-06T21:49:00.834Z,33.03
2017-09-06T21:51:28.286Z,29.93
2017-09-06T21:53:55.765Z,32.93
2017-09-06T21:56:23.244Z,24.83
2017-09-06T21:58:50.796Z,22.33
2017-09-06T22:01:18.274Z,25.13
2017-09-06T22:03:45.766Z,27.30
2017-09-06T22:06:13.225Z,19.17
2017-09-06T22:08:40.685Z,19.40
2017-09-06T22:11:08.161Z,33.40
2017-09-06T22:13:35.653Z,25.90
2017-09-06T22:16:03.109Z,36.07
2017-09-06T22:18:30.570Z,13.93
2017-09-06T22:20:58.050Z,23.10
2017-09-06T22:23:25.521Z,28.83
2017-09-06T22:25:52.983Z,30.13
2017-09-06T22:28:20.461Z,30.10
2017-09-06T22:30:47.917Z,31.33
2017-09-06T22:33:15.374Z,18.80
2017-09-06T22:35:42.863Z,25.80
2017-09-06T22:38:10.311Z,25.47
2017-09-06T22:40:37.766Z,29.80
2017-09-06T22:43:05.232Z,21.43
2017-09-06T22:45:32.688Z,26.87
2017-09-06T22:48:00.165Z,21.13
2017-09-06T22:50:27.617Z,20.70
2017-09-06T22:52:55.081Z,22.13
2017-09-06T22:55:22.554Z,22.73
2017-09-06T22:57:50.026Z,23.20
2017-09-06T23:00:17.473Z,23.00
2017-09-06T23:02:44.971Z,20.80
2017-09-06T23:05:12.421Z,22.33
2017-09-06T23:07:39.872Z,18.97
2017-09-06T23:10:07.345Z,25.33
2017-09-06T23:12:34.821Z,18.10
2017-09-06T23:15:02.274Z,19.53
2017-09-06T23:17:29.726Z,30.17
2017-09-06T23:19:57.201Z,28.13
2017-09-06T23:22:24.686Z,22.90
2017-09-06T23:24:52.138Z,20.87
2017-09-06T23:27:20.359Z,28.63
2017-09-06T23:29:47.832Z,12.20
2017-09-06T23:32:15.286Z,30.13
2017-09-06T23:34:42.766Z,18.73
2017-09-06T23:37:10.225Z,27.50
2017-09-06T23:39:37.702Z,14.60
2017-09-06T23:42:05.158Z,25.17
2017-09-06T23:44:32.633Z,31.83
2017-09-06T23:47:00.102Z,38.40
2017-09-06T23:49:27.657Z,24.00
2017-09-06T23:51:55.892Z,25.00
2017-09-06T23:54:23.350Z,28.93
2017-09-06T23:56:50.857Z,22.70
2017-09-06T23:59:18.309Z,38.97
